Time;durP1;ratioP1;P1;durP2;ratioP2;P2;SDS_P1;SDS_P2;PMS_P1;PMS_P2;Temp;Humidity;BMP_temperature;BMP_pressure;BME280_temperature;BME280_humidity;BME280_pressure;Samples;Min_cycle;Max_cycle;Signal;HPM_P1;HPM_P2
2023/07/13 00:00:45;;;;;;;;;;;16.80;99.90;;;;;;7304172;19;9252;-71
2023/07/13 00:03:14;;;;;;;;;;;16.70;99.90;;;;;;7305554;19;9447;-71
2023/07/13 00:05:48;;;;;;;;;;;16.70;99.90;;;;;;7304933;19;9356;-71
2023/07/13 00:08:17;;;;;;;;;;;16.70;99.90;;;;;;7305094;19;10290;-71
2023/07/13 00:10:46;;;;;;;;;;;16.60;99.90;;;;;;7305414;19;9074;-71
2023/07/13 00:13:17;;;;;;;;;;;16.60;99.90;;;;;;7307726;19;10948;-71
2023/07/13 00:15:46;;;;;;;;;;;16.60;99.90;;;;;;7304661;19;11293;-71
2023/07/13 00:18:15;;;;;;;;;;;16.50;99.90;;;;;;7305235;19;9731;-71
2023/07/13 00:20:47;;;;;;;;;;;16.50;99.90;;;;;;7305107;19;8968;-71
2023/07/13 00:23:19;;;;;;;;;;;16.60;99.90;;;;;;7307453;19;10761;-71
2023/07/13 00:25:50;;;;;;;;;;;16.50;99.90;;;;;;7303874;19;9344;-70
2023/07/13 00:28:19;;;;;;;;;;;16.50;99.90;;;;;;7302475;19;11176;-71
2023/07/13 00:30:48;;;;;;;;;;;16.50;99.90;;;;;;7301834;19;10529;-71
2023/07/13 00:33:18;;;;;;;;;;;16.50;99.90;;;;;;7304388;19;9143;-70
2023/07/13 00:35:49;;;;;;;;;;;16.40;99.90;;;;;;7309028;19;9241;-72
2023/07/13 00:38:20;;;;;;;;;;;16.40;99.90;;;;;;7305204;19;9562;-71
2023/07/13 00:40:49;;;;;;;;;;;16.30;99.90;;;;;;7303194;19;9496;-71
2023/07/13 00:43:20;;;;;;;;;;;16.30;99.90;;;;;;7303086;19;9279;-71
2023/07/13 00:46:21;;;;;;;;;;;16.30;99.90;;;;;;7302744;19;9123;-71
2023/07/13 00:48:53;;;;;;;;;;;16.30;99.90;;;;;;7302982;19;9228;-70
2023/07/13 00:51:36;;;;;;;;;;;16.40;99.90;;;;;;7302874;19;10246;-71
2023/07/13 00:54:10;;;;;;;;;;;16.50;99.90;;;;;;7304423;19;9201;-70
2023/07/13 00:56:42;;;;;;;;;;;16.60;99.90;;;;;;7302027;19;9244;-70
2023/07/13 00:59:15;;;;;;;;;;;16.70;99.90;;;;;;7303416;19;9290;-71
2023/07/13 01:01:45;;;;;;;;;;;16.70;99.90;;;;;;7303721;19;9367;-70
2023/07/13 01:04:14;;;;;;;;;;;16.90;99.90;;;;;;7305117;19;9312;-71
2023/07/13 01:06:51;;;;;;;;;;;17.00;99.90;;;;;;7304354;19;9514;-70
2023/07/13 01:09:22;;;;;;;;;;;17.00;99.90;;;;;;7303405;19;9188;-71
2023/07/13 01:11:51;;;;;;;;;;;16.90;99.90;;;;;;7305258;19;10154;-71
2023/07/13 01:14:20;;;;;;;;;;;16.90;99.90;;;;;;7308759;19;9245;-71
2023/07/13 01:16:52;;;;;;;;;;;16.90;99.90;;;;;;7304982;19;9475;-71
2023/07/13 01:19:35;;;;;;;;;;;16.90;99.90;;;;;;7303442;19;9311;-70
2023/07/13 01:22:11;;;;;;;;;;;16.90;99.90;;;;;;7302597;19;9768;-71
2023/07/13 01:24:42;;;;;;;;;;;16.70;99.90;;;;;;7301011;19;9229;-70
2023/07/13 01:27:13;;;;;;;;;;;16.80;99.90;;;;;;7301444;19;9237;-71
2023/07/13 01:29:46;;;;;;;;;;;16.80;99.90;;;;;;7298965;19;9281;-71
2023/07/13 01:32:22;;;;;;;;;;;16.70;99.90;;;;;;7272681;19;9417;-71
2023/07/13 01:34:54;;;;;;;;;;;16.70;99.90;;;;;;7265662;19;11395;-71
2023/07/13 01:37:27;;;;;;;;;;;16.60;99.90;;;;;;7262462;19;10579;-71
2023/07/13 01:39:56;;;;;;;;;;;16.60;99.90;;;;;;7260803;19;9358;-71
2023/07/13 01:42:26;;;;;;;;;;;16.50;99.90;;;;;;7265909;19;9581;-71
2023/07/13 01:44:55;;;;;;;;;;;16.70;99.90;;;;;;7265881;19;10325;-71
2023/07/13 01:47:26;;;;;;;;;;;16.80;99.90;;;;;;7264026;19;9544;-70
2023/07/13 01:49:55;;;;;;;;;;;16.80;99.90;;;;;;7267331;19;9465;-71
2023/07/13 01:52:27;;;;;;;;;;;16.70;99.90;;;;;;7266018;19;10181;-70
2023/07/13 01:54:56;;;;;;;;;;;16.70;99.90;;;;;;7264457;19;9363;-70
2023/07/13 01:57:25;;;;;;;;;;;16.80;99.90;;;;;;7273930;19;9552;-71
2023/07/13 01:59:54;;;;;;;;;;;16.80;99.90;;;;;;7296125;19;9316;-70
2023/07/13 02:02:23;;;;;;;;;;;16.70;99.90;;;;;;7298422;19;10162;-71
2023/07/13 02:04:53;;;;;;;;;;;16.70;99.90;;;;;;7298322;19;9645;-71
2023/07/13 02:07:22;;;;;;;;;;;16.80;99.90;;;;;;7297769;19;9342;-71
2023/07/13 02:09:53;;;;;;;;;;;16.80;99.90;;;;;;7304266;19;9838;-71
2023/07/13 02:12:23;;;;;;;;;;;16.80;99.90;;;;;;7309216;19;9537;-71
2023/07/13 02:14:52;;;;;;;;;;;16.80;99.90;;;;;;7310930;19;9419;-71
2023/07/13 02:17:21;;;;;;;;;;;16.90;99.90;;;;;;7308352;19;9426;-71
2023/07/13 02:19:50;;;;;;;;;;;16.90;99.90;;;;;;7307999;19;9237;-71
2023/07/13 02:22:20;;;;;;;;;;;16.90;99.90;;;;;;7309984;19;9562;-71
2023/07/13 02:24:49;;;;;;;;;;;17.00;99.90;;;;;;7306066;19;8944;-70
2023/07/13 02:27:21;;;;;;;;;;;17.00;99.90;;;;;;7309462;19;9278;-71
2023/07/13 02:29:51;;;;;;;;;;;17.10;99.90;;;;;;7307559;19;9611;-70
2023/07/13 02:32:20;;;;;;;;;;;17.10;99.90;;;;;;7308665;19;9548;-71
2023/07/13 02:34:49;;;;;;;;;;;17.10;99.90;;;;;;7309877;19;10965;-71
2023/07/13 02:37:18;;;;;;;;;;;17.00;99.90;;;;;;7311304;19;9520;-71
2023/07/13 02:39:48;;;;;;;;;;;16.90;99.90;;;;;;7308128;19;9735;-71
2023/07/13 02:42:20;;;;;;;;;;;16.90;99.90;;;;;;7309931;19;8952;-70
2023/07/13 02:44:50;;;;;;;;;;;16.90;99.90;;;;;;7308080;19;9286;-71
2023/07/13 02:47:19;;;;;;;;;;;16.80;99.90;;;;;;7307690;19;9233;-71
2023/07/13 02:49:48;;;;;;;;;;;16.70;99.90;;;;;;7307614;19;9429;-71
2023/07/13 02:52:18;;;;;;;;;;;16.70;99.90;;;;;;7309463;19;9474;-70
2023/07/13 02:54:47;;;;;;;;;;;16.70;99.90;;;;;;7307738;19;10141;-71
2023/07/13 02:57:16;;;;;;;;;;;16.70;99.90;;;;;;7308422;19;9368;-70
2023/07/13 02:59:48;;;;;;;;;;;16.70;99.90;;;;;;7306535;19;9375;-70
2023/07/13 03:02:17;;;;;;;;;;;16.70;99.90;;;;;;7308746;19;9256;-70
2023/07/13 03:04:46;;;;;;;;;;;16.80;99.90;;;;;;7302664;19;9302;-71
2023/07/13 03:07:16;;;;;;;;;;;16.80;99.90;;;;;;7304776;19;9233;-71
2023/07/13 03:09:45;;;;;;;;;;;16.90;99.90;;;;;;7306447;19;9504;-71
2023/07/13 03:12:14;;;;;;;;;;;16.80;99.90;;;;;;7309272;19;9280;-70
2023/07/13 03:14:44;;;;;;;;;;;16.80;99.90;;;;;;7307904;19;9987;-71
2023/07/13 03:17:18;;;;;;;;;;;16.90;99.90;;;;;;7306493;19;9390;-70
2023/07/13 03:19:49;;;;;;;;;;;16.90;99.90;;;;;;7303570;19;9314;-70
2023/07/13 03:22:18;;;;;;;;;;;16.90;99.90;;;;;;7304995;19;9761;-70
2023/07/13 03:24:48;;;;;;;;;;;16.90;99.90;;;;;;7304970;19;9107;-70
2023/07/13 03:27:18;;;;;;;;;;;17.00;99.90;;;;;;7304997;19;9439;-69
2023/07/13 03:29:47;;;;;;;;;;;17.10;99.90;;;;;;7302537;19;10516;-71
2023/07/13 03:32:19;;;;;;;;;;;17.20;99.90;;;;;;7302559;19;10598;-71
2023/07/13 03:34:48;;;;;;;;;;;17.30;99.90;;;;;;7305935;19;9390;-70
2023/07/13 03:37:17;;;;;;;;;;;17.30;99.90;;;;;;7311063;19;9221;-71
2023/07/13 03:39:46;;;;;;;;;;;17.20;99.90;;;;;;7305751;19;10393;-71
2023/07/13 03:42:16;;;;;;;;;;;17.10;99.90;;;;;;7308046;19;9555;-71
2023/07/13 03:44:52;;;;;;;;;;;17.00;99.90;;;;;;7305747;19;9379;-71
2023/07/13 03:47:23;;;;;;;;;;;17.10;99.90;;;;;;7307258;19;10153;-71
2023/07/13 03:49:53;;;;;;;;;;;17.10;99.90;;;;;;7306694;19;9261;-71
2023/07/13 03:52:23;;;;;;;;;;;16.90;99.90;;;;;;7305748;19;9684;-71
2023/07/13 03:54:52;;;;;;;;;;;16.90;99.90;;;;;;7304988;19;9252;-71
2023/07/13 03:57:22;;;;;;;;;;;17.00;99.90;;;;;;7304908;19;14002;-71
2023/07/13 03:59:51;;;;;;;;;;;17.10;99.90;;;;;;7304954;19;9288;-71
2023/07/13 04:02:23;;;;;;;;;;;17.10;99.90;;;;;;7306692;19;9272;-71
2023/07/13 04:04:52;;;;;;;;;;;17.10;99.90;;;;;;7304535;19;9057;-71
2023/07/13 04:07:21;;;;;;;;;;;17.10;99.90;;;;;;7306592;19;9253;-70
2023/07/13 04:09:51;;;;;;;;;;;17.10;99.90;;;;;;7305238;19;9371;-71
2023/07/13 04:12:20;;;;;;;;;;;17.10;99.90;;;;;;7305256;19;9439;-70
2023/07/13 04:14:49;;;;;;;;;;;17.10;99.90;;;;;;7307442;19;9260;-71
2023/07/13 04:17:18;;;;;;;;;;;17.10;99.90;;;;;;7307129;19;9466;-70
2023/07/13 04:19:50;;;;;;;;;;;17.10;99.90;;;;;;7306062;19;9633;-71
2023/07/13 04:22:19;;;;;;;;;;;16.90;99.90;;;;;;7305603;19;9371;-70
2023/07/13 04:24:48;;;;;;;;;;;16.90;99.90;;;;;;7304439;19;9453;-71
2023/07/13 04:27:17;;;;;;;;;;;16.80;99.90;;;;;;7305454;19;9452;-71
2023/07/13 04:29:49;;;;;;;;;;;16.80;99.90;;;;;;7305105;19;9474;-71
2023/07/13 04:32:18;;;;;;;;;;;16.70;99.90;;;;;;7302764;19;9448;-72
2023/07/13 04:34:53;;;;;;;;;;;16.80;99.90;;;;;;7301218;19;9260;-71
2023/07/13 04:37:23;;;;;;;;;;;17.00;99.90;;;;;;7303724;19;9092;-71
2023/07/13 04:39:52;;;;;;;;;;;17.10;99.90;;;;;;7304754;19;9339;-70
2023/07/13 04:42:22;;;;;;;;;;;17.20;99.90;;;;;;7305684;19;9298;-71
2023/07/13 04:44:52;;;;;;;;;;;17.10;99.90;;;;;;7303778;19;10142;-71
2023/07/13 04:47:22;;;;;;;;;;;17.10;99.90;;;;;;7305381;19;9376;-70
2023/07/13 04:49:53;;;;;;;;;;;17.20;99.90;;;;;;7304233;19;9241;-70
2023/07/13 04:52:22;;;;;;;;;;;17.20;99.90;;;;;;7301939;19;10780;-71
2023/07/13 04:54:52;;;;;;;;;;;17.20;99.90;;;;;;7298935;19;9217;-71
2023/07/13 04:57:21;;;;;;;;;;;17.20;99.90;;;;;;7304983;19;11281;-71
2023/07/13 04:59:50;;;;;;;;;;;17.20;99.90;;;;;;7304685;19;11499;-71
2023/07/13 05:02:16;;;;;;;;;;;17.30;99.90;;;;;;7298336;19;9182;-71
2023/07/13 05:04:48;;;;;;;;;;;17.40;99.90;;;;;;7302342;19;9301;-70
2023/07/13 05:07:20;;;;;;;;;;;17.60;99.90;;;;;;7300701;19;10487;-71
2023/07/13 05:09:49;;;;;;;;;;;17.70;99.90;;;;;;7300522;19;9211;-71
2023/07/13 05:12:18;;;;;;;;;;;17.90;99.90;;;;;;7302184;19;9805;-71
2023/07/13 05:14:49;;;;;;;;;;;18.10;99.90;;;;;;7304821;19;9515;-71
2023/07/13 05:17:18;;;;;;;;;;;18.10;99.90;;;;;;7301061;19;9354;-71
2023/07/13 05:19:47;;;;;;;;;;;18.10;99.90;;;;;;7303193;19;9220;-71
2023/07/13 05:22:16;;;;;;;;;;;18.30;99.90;;;;;;7302648;19;11468;-71
2023/07/13 05:24:48;;;;;;;;;;;18.40;99.90;;;;;;7299015;19;9907;-71
2023/07/13 05:27:17;;;;;;;;;;;18.60;99.90;;;;;;7301947;19;9260;-71
2023/07/13 05:29:46;;;;;;;;;;;18.60;99.90;;;;;;7301943;19;9263;-71
2023/07/13 05:32:15;;;;;;;;;;;18.50;99.90;;;;;;7298071;19;9607;-71
2023/07/13 05:34:45;;;;;;;;;;;18.50;99.90;;;;;;7301550;19;9473;-70
2023/07/13 05:37:14;;;;;;;;;;;18.60;99.90;;;;;;7301082;19;9602;-71
2023/07/13 05:39:43;;;;;;;;;;;18.60;99.90;;;;;;7303487;19;9275;-71
2023/07/13 05:42:15;;;;;;;;;;;18.80;99.90;;;;;;7304428;19;9639;-70
2023/07/13 05:44:44;;;;;;;;;;;18.90;99.90;;;;;;7310316;19;9347;-70
2023/07/13 05:47:14;;;;;;;;;;;18.90;99.90;;;;;;7310578;19;9096;-71
2023/07/13 05:49:43;;;;;;;;;;;19.10;99.90;;;;;;7308039;19;9430;-70
2023/07/13 05:52:13;;;;;;;;;;;19.30;99.90;;;;;;7309948;19;9298;-71
2023/07/13 05:54:42;;;;;;;;;;;19.30;99.90;;;;;;7307890;19;10305;-70
2023/07/13 05:57:13;;;;;;;;;;;19.40;99.90;;;;;;7308843;19;9415;-68
2023/07/13 05:59:43;;;;;;;;;;;19.50;99.90;;;;;;7308359;19;9568;-67
2023/07/13 06:02:13;;;;;;;;;;;19.60;99.90;;;;;;7309186;19;10162;-72
2023/07/13 06:04:42;;;;;;;;;;;19.60;99.90;;;;;;7307652;19;9285;-74
2023/07/13 06:07:11;;;;;;;;;;;19.70;99.90;;;;;;7309288;19;9220;-70
2023/07/13 06:09:40;;;;;;;;;;;19.60;99.90;;;;;;7307002;19;11112;-72
2023/07/13 06:12:10;;;;;;;;;;;19.70;99.90;;;;;;7309495;19;10171;-71
2023/07/13 06:14:42;;;;;;;;;;;20.10;99.90;;;;;;7308315;19;9366;-70
2023/07/13 06:17:11;;;;;;;;;;;19.70;99.90;;;;;;7309411;19;9314;-69
2023/07/13 06:19:40;;;;;;;;;;;19.70;99.90;;;;;;7307029;19;9395;-69
2023/07/13 06:22:10;;;;;;;;;;;19.90;99.90;;;;;;7309852;19;9425;-70
2023/07/13 06:24:39;;;;;;;;;;;20.00;99.90;;;;;;7306932;19;9533;-70
2023/07/13 06:27:08;;;;;;;;;;;20.00;99.90;;;;;;7305420;19;9397;-69
2023/07/13 06:29:37;;;;;;;;;;;19.80;99.90;;;;;;7305613;19;9445;-69
2023/07/13 06:32:11;;;;;;;;;;;19.70;99.90;;;;;;7305015;19;9591;-70
2023/07/13 06:34:40;;;;;;;;;;;19.90;99.90;;;;;;7305308;19;11909;-69
2023/07/13 06:37:09;;;;;;;;;;;19.90;99.90;;;;;;7302949;19;9411;-69
2023/07/13 06:39:38;;;;;;;;;;;19.80;99.90;;;;;;7302199;19;10542;-69
2023/07/13 06:42:09;;;;;;;;;;;19.70;99.90;;;;;;7300643;19;11357;-69
2023/07/13 06:44:38;;;;;;;;;;;19.70;99.90;;;;;;7305038;19;9166;-69
2023/07/13 06:47:10;;;;;;;;;;;19.80;99.90;;;;;;7305511;19;9292;-69
2023/07/13 06:49:40;;;;;;;;;;;19.70;99.90;;;;;;7308422;19;10348;-69
2023/07/13 06:52:09;;;;;;;;;;;19.60;99.90;;;;;;7309213;19;9437;-69
2023/07/13 06:54:38;;;;;;;;;;;19.80;99.90;;;;;;7304538;19;9398;-69
2023/07/13 06:57:08;;;;;;;;;;;19.70;99.90;;;;;;7308054;19;9293;-69
2023/07/13 06:59:37;;;;;;;;;;;19.80;99.90;;;;;;7306514;19;10350;-69
2023/07/13 07:02:12;;;;;;;;;;;19.80;99.90;;;;;;7308442;19;9268;-69
2023/07/13 07:04:45;;;;;;;;;;;20.00;99.90;;;;;;7307397;19;9325;-69
2023/07/13 07:07:14;;;;;;;;;;;20.30;99.90;;;;;;7308903;19;9249;-69
2023/07/13 07:09:43;;;;;;;;;;;20.70;99.90;;;;;;7306222;19;9321;-69
2023/07/13 07:12:12;;;;;;;;;;;20.90;99.90;;;;;;7305841;19;9467;-69
2023/07/13 07:14:41;;;;;;;;;;;20.60;99.90;;;;;;7309989;19;9509;-69
2023/07/13 07:17:13;;;;;;;;;;;20.80;99.90;;;;;;7308461;19;9282;-69
2023/07/13 07:19:42;;;;;;;;;;;21.10;99.90;;;;;;7305344;19;10763;-70
2023/07/13 07:22:12;;;;;;;;;;;21.30;99.90;;;;;;7306863;19;9498;-69
2023/07/13 07:24:41;;;;;;;;;;;21.90;99.90;;;;;;7304924;19;10590;-69
2023/07/13 07:27:10;;;;;;;;;;;22.00;99.90;;;;;;7307221;19;10260;-70
2023/07/13 07:29:39;;;;;;;;;;;22.20;99.90;;;;;;7307019;19;11742;-70
2023/07/13 07:32:09;;;;;;;;;;;22.80;97.90;;;;;;7306616;19;10771;-69
2023/07/13 07:34:40;;;;;;;;;;;23.10;96.80;;;;;;7305719;19;9441;-69
2023/07/13 07:37:13;;;;;;;;;;;23.40;95.80;;;;;;7310201;19;9217;-69
2023/07/13 07:39:42;;;;;;;;;;;23.10;93.90;;;;;;7305714;19;9639;-69
2023/07/13 07:42:12;;;;;;;;;;;23.10;93.90;;;;;;7308674;19;11394;-69
2023/07/13 07:44:42;;;;;;;;;;;23.10;95.20;;;;;;7304706;19;9245;-70
2023/07/13 07:47:12;;;;;;;;;;;23.10;94.70;;;;;;7307059;19;10045;-69
2023/07/13 07:49:45;;;;;;;;;;;23.00;95.40;;;;;;7305397;19;9812;-69
2023/07/13 07:52:14;;;;;;;;;;;23.20;93.60;;;;;;7308081;19;9566;-69
2023/07/13 07:54:43;;;;;;;;;;;22.90;94.30;;;;;;7303628;19;9086;-70
2023/07/13 07:57:12;;;;;;;;;;;22.70;94.20;;;;;;7305574;19;9277;-69
2023/07/13 07:59:41;;;;;;;;;;;22.60;95.30;;;;;;7304813;19;9485;-69
2023/07/13 08:02:13;;;;;;;;;;;22.20;96.00;;;;;;7304720;19;9371;-69
2023/07/13 08:04:45;;;;;;;;;;;22.10;94.70;;;;;;7310631;19;9244;-69
2023/07/13 08:07:14;;;;;;;;;;;21.90;96.60;;;;;;7307426;19;9505;-69
2023/07/13 08:09:43;;;;;;;;;;;21.80;97.90;;;;;;7305334;19;9276;-69
2023/07/13 08:12:13;;;;;;;;;;;21.90;96.70;;;;;;7305117;19;9646;-69
2023/07/13 08:14:42;;;;;;;;;;;21.80;97.00;;;;;;7306064;19;8944;-69
2023/07/13 08:17:11;;;;;;;;;;;21.50;97.20;;;;;;7306637;19;11322;-69
2023/07/13 08:19:40;;;;;;;;;;;21.30;99.00;;;;;;7305003;19;9649;-69
2023/07/13 08:22:12;;;;;;;;;;;21.20;99.50;;;;;;7304966;19;9482;-69
2023/07/13 08:24:42;;;;;;;;;;;21.30;99.90;;;;;;7302289;19;10615;-69
2023/07/13 08:27:11;;;;;;;;;;;21.60;99.20;;;;;;7304487;19;9257;-69
2023/07/13 08:29:40;;;;;;;;;;;21.90;99.40;;;;;;7302715;19;9715;-69
2023/07/13 08:32:11;;;;;;;;;;;22.10;98.20;;;;;;7298061;19;10760;-69
2023/07/13 08:34:40;;;;;;;;;;;21.80;97.30;;;;;;7267585;19;9477;-69
2023/07/13 08:37:12;;;;;;;;;;;21.90;96.60;;;;;;7271213;19;9531;-69
2023/07/13 08:39:41;;;;;;;;;;;22.00;97.40;;;;;;7267857;19;10031;-70
2023/07/13 08:42:25;;;;;;;;;;;21.80;96.20;;;;;;7271373;19;10883;-70
2023/07/13 08:45:08;;;;;;;;;;;21.70;97.10;;;;;;7276245;19;11203;-69
2023/07/13 08:47:45;;;;;;;;;;;21.70;97.40;;;;;;7271263;19;9453;-69
2023/07/13 08:50:19;;;;;;;;;;;21.20;97.50;;;;;;7274947;19;9235;-69
2023/07/13 08:52:52;;;;;;;;;;;20.30;96.00;;;;;;7271761;19;9247;-69
2023/07/13 08:55:28;;;;;;;;;;;20.10;97.40;;;;;;7268801;19;9237;-69
2023/07/13 08:58:06;;;;;;;;;;;19.90;99.40;;;;;;7282652;19;9240;-70
2023/07/13 09:00:46;;;;;;;;;;;19.30;99.90;;;;;;7297281;19;10944;-69
2023/07/13 09:03:26;;;;;;;;;;;18.40;99.90;;;;;;7304555;19;9308;-70
2023/07/13 09:06:02;;;;;;;;;;;17.90;99.90;;;;;;7303470;19;9514;-70
2023/07/13 09:08:48;;;;;;;;;;;17.30;99.90;;;;;;7301482;19;10164;-69
2023/07/13 09:11:35;;;;;;;;;;;17.30;99.90;;;;;;7303821;19;9209;-70
2023/07/13 09:14:18;;;;;;;;;;;17.30;99.90;;;;;;7303031;19;11265;-70
2023/07/13 09:16:50;;;;;;;;;;;17.30;99.90;;;;;;7302317;19;9272;-70
2023/07/13 09:19:28;;;;;;;;;;;17.40;99.90;;;;;;7308835;19;10218;-70
2023/07/13 09:21:59;;;;;;;;;;;17.40;99.90;;;;;;7310605;19;9440;-70
2023/07/13 09:24:40;;;;;;;;;;;17.40;99.90;;;;;;7307963;19;9239;-69
2023/07/13 09:27:19;;;;;;;;;;;17.80;99.90;;;;;;7312175;19;8944;-69
2023/07/13 09:30:10;;;;;;;;;;;18.00;99.90;;;;;;7310574;19;9262;-70
2023/07/13 09:32:43;;;;;;;;;;;18.10;99.90;;;;;;7309561;19;8944;-70
2023/07/13 09:35:15;;;;;;;;;;;18.10;99.90;;;;;;7313003;19;9285;-70
2023/07/13 09:37:48;;;;;;;;;;;18.20;99.90;;;;;;7310021;19;9244;-70
2023/07/13 09:40:28;;;;;;;;;;;18.40;99.90;;;;;;7310017;19;9270;-70
2023/07/13 09:43:01;;;;;;;;;;;18.70;99.90;;;;;;7311509;19;9253;-70
2023/07/13 09:45:32;;;;;;;;;;;18.70;99.90;;;;;;7312364;19;9261;-70
2023/07/13 09:48:06;;;;;;;;;;;18.80;99.90;;;;;;7311933;19;10815;-70
2023/07/13 09:50:37;;;;;;;;;;;18.70;99.90;;;;;;7312161;19;11061;-69
2023/07/13 09:53:06;;;;;;;;;;;18.80;99.90;;;;;;7309343;19;9249;-70
2023/07/13 09:55:41;;;;;;;;;;;19.20;99.90;;;;;;7308052;19;9310;-70
2023/07/13 09:58:16;;;;;;;;;;;19.10;99.90;;;;;;7310778;19;10153;-70
2023/07/13 10:00:55;;;;;;;;;;;19.20;99.90;;;;;;7305521;19;10366;-69
2023/07/13 10:03:26;;;;;;;;;;;19.20;99.90;;;;;;7310282;19;9440;-70
2023/07/13 10:05:56;;;;;;;;;;;19.00;99.90;;;;;;7309333;19;9312;-69
2023/07/13 10:08:30;;;;;;;;;;;19.20;99.90;;;;;;7308565;19;9311;-70
2023/07/13 10:11:12;;;;;;;;;;;19.40;99.90;;;;;;7307863;19;9260;-69
2023/07/13 10:13:48;;;;;;;;;;;19.80;99.90;;;;;;7309973;19;9238;-69
2023/07/13 10:16:18;;;;;;;;;;;20.10;99.90;;;;;;7309878;19;9350;-69
2023/07/13 10:18:51;;;;;;;;;;;20.30;99.90;;;;;;7305355;19;11291;-70
2023/07/13 10:21:23;;;;;;;;;;;20.40;99.90;;;;;;7306815;19;11403;-70
2023/07/13 10:23:58;;;;;;;;;;;20.60;99.90;;;;;;7305088;19;9885;-70
2023/07/13 10:26:35;;;;;;;;;;;20.90;99.90;;;;;;7308858;19;9359;-70
2023/07/13 10:29:13;;;;;;;;;;;21.10;99.90;;;;;;7306489;19;9526;-70
2023/07/13 10:31:44;;;;;;;;;;;21.20;99.90;;;;;;7306805;19;9381;-70
2023/07/13 10:34:15;;;;;;;;;;;21.20;99.90;;;;;;7304839;19;9538;-70
2023/07/13 10:36:47;;;;;;;;;;;21.10;99.90;;;;;;7310693;19;9355;-70
2023/07/13 10:39:23;;;;;;;;;;;21.20;99.90;;;;;;7308494;19;9584;-70
2023/07/13 10:42:00;;;;;;;;;;;21.10;99.90;;;;;;7307916;19;9274;-70
2023/07/13 10:44:32;;;;;;;;;;;21.10;99.90;;;;;;7308118;19;9288;-69
2023/07/13 10:47:03;;;;;;;;;;;21.00;99.90;;;;;;7311057;19;9139;-71
2023/07/13 10:49:36;;;;;;;;;;;20.90;99.90;;;;;;7306660;19;9469;-70
2023/07/13 10:52:07;;;;;;;;;;;20.80;99.90;;;;;;7308488;19;9259;-70
2023/07/13 10:54:37;;;;;;;;;;;21.20;99.90;;;;;;7308076;19;9418;-70
2023/07/13 10:57:30;;;;;;;;;;;21.30;99.90;;;;;;7308496;19;9394;-70
2023/07/13 11:00:19;;;;;;;;;;;21.60;99.90;;;;;;7306293;19;9465;-70
2023/07/13 11:03:00;;;;;;;;;;;21.50;99.90;;;;;;7308298;19;10248;-70
2023/07/13 11:05:34;;;;;;;;;;;21.70;99.90;;;;;;7308838;19;9429;-70
2023/07/13 11:08:16;;;;;;;;;;;21.60;99.90;;;;;;7306113;19;9406;-69
2023/07/13 11:10:55;;;;;;;;;;;21.60;99.90;;;;;;7303690;19;9498;-70
2023/07/13 11:14:02;;;;;;;;;;;22.10;99.30;;;;;;7308768;19;9762;-70
2023/07/13 11:16:46;;;;;;;;;;;22.50;97.50;;;;;;7311976;19;9536;-70
2023/07/13 11:19:40;;;;;;;;;;;22.30;97.00;;;;;;7306236;19;9431;-70
2023/07/13 11:22:45;;;;;;;;;;;22.20;97.10;;;;;;7307403;19;9352;-70
2023/07/13 11:25:32;;;;;;;;;;;22.00;97.60;;;;;;7295752;19;9702;-69
2023/07/13 11:28:21;;;;;;;;;;;22.00;96.80;;;;;;7305967;19;9353;-70
2023/07/13 11:31:19;;;;;;;;;;;22.50;94.40;;;;;;7303678;19;10698;-70
2023/07/13 11:34:02;;;;;;;;;;;23.00;92.40;;;;;;7298627;19;9515;-70
2023/07/13 11:36:38;;;;;;;;;;;23.40;90.90;;;;;;7308582;19;9991;-69
2023/07/13 11:39:19;;;;;;;;;;;23.50;90.00;;;;;;7302042;19;11175;-69
2023/07/13 11:41:55;;;;;;;;;;;23.60;88.30;;;;;;7303126;19;9374;-69
2023/07/13 11:44:26;;;;;;;;;;;23.80;87.30;;;;;;7303613;19;9290;-69
2023/07/13 11:47:03;;;;;;;;;;;23.80;85.70;;;;;;7304075;19;9274;-69
2023/07/13 11:49:34;;;;;;;;;;;23.90;84.00;;;;;;7304021;19;9355;-70
2023/07/13 11:52:05;;;;;;;;;;;23.80;83.40;;;;;;7307716;19;10750;-69
2023/07/13 11:54:36;;;;;;;;;;;23.70;84.50;;;;;;7302448;19;10141;-69
2023/07/13 11:57:19;;;;;;;;;;;23.90;82.70;;;;;;7303992;19;8945;-69
2023/07/13 11:59:49;;;;;;;;;;;24.00;81.80;;;;;;7302430;19;9426;-70
2023/07/13 12:02:31;;;;;;;;;;;24.10;80.70;;;;;;7302292;19;9344;-69
2023/07/13 12:05:02;;;;;;;;;;;24.20;79.90;;;;;;7305526;19;9657;-69
2023/07/13 12:07:34;;;;;;;;;;;24.20;79.90;;;;;;7303350;19;9480;-70
2023/07/13 12:10:04;;;;;;;;;;;24.10;79.20;;;;;;7298680;19;10169;-69
2023/07/13 12:12:33;;;;;;;;;;;24.10;78.30;;;;;;7301394;19;9256;-69
2023/07/13 12:15:03;;;;;;;;;;;24.30;78.40;;;;;;7300501;19;9391;-70
2023/07/13 12:17:36;;;;;;;;;;;23.90;77.00;;;;;;7306089;19;9401;-70
2023/07/13 12:20:23;;;;;;;;;;;23.30;77.80;;;;;;7304259;19;9241;-70
2023/07/13 12:22:54;;;;;;;;;;;23.40;78.80;;;;;;7304971;19;11095;-70
2023/07/13 12:25:25;;;;;;;;;;;23.50;78.60;;;;;;7300450;19;9454;-69
2023/07/13 12:27:55;;;;;;;;;;;23.50;78.50;;;;;;7286786;19;9535;-70
2023/07/13 12:30:33;;;;;;;;;;;23.60;78.00;;;;;;7300441;19;10412;-70
2023/07/13 12:33:10;;;;;;;;;;;23.50;78.40;;;;;;7298459;19;9253;-69
2023/07/13 12:35:47;;;;;;;;;;;23.70;76.30;;;;;;7306555;19;9346;-69
2023/07/13 12:38:16;;;;;;;;;;;23.90;74.20;;;;;;7304476;19;9443;-70
2023/07/13 12:40:47;;;;;;;;;;;24.00;74.70;;;;;;7299605;19;9286;-70
2023/07/13 12:43:18;;;;;;;;;;;24.00;73.40;;;;;;7301509;19;10953;-69
2023/07/13 12:45:59;;;;;;;;;;;23.90;72.50;;;;;;7303729;19;9934;-69
2023/07/13 12:48:31;;;;;;;;;;;24.00;72.00;;;;;;7302355;19;9456;-69
2023/07/13 12:51:04;;;;;;;;;;;24.00;70.20;;;;;;7300583;19;9114;-70
2023/07/13 12:53:34;;;;;;;;;;;24.20;70.10;;;;;;7300127;19;10974;-69
2023/07/13 12:56:06;;;;;;;;;;;24.40;69.50;;;;;;7300908;19;9335;-69
2023/07/13 12:58:45;;;;;;;;;;;24.40;69.10;;;;;;7303743;19;9278;-69
2023/07/13 13:01:16;;;;;;;;;;;23.90;67.80;;;;;;7300812;19;9247;-69
2023/07/13 13:03:55;;;;;;;;;;;24.20;67.20;;;;;;7301703;19;9416;-69
2023/07/13 13:06:28;;;;;;;;;;;24.40;68.30;;;;;;7302941;19;9128;-69
2023/07/13 13:09:00;;;;;;;;;;;24.10;68.30;;;;;;7300139;19;9482;-69
2023/07/13 13:11:34;;;;;;;;;;;23.90;67.40;;;;;;7303319;19;10333;-69
2023/07/13 13:14:04;;;;;;;;;;;24.20;68.60;;;;;;7305147;19;9359;-69
2023/07/13 13:16:35;;;;;;;;;;;24.40;67.30;;;;;;7308184;19;9252;-69
2023/07/13 13:19:17;;;;;;;;;;;24.30;66.80;;;;;;7301040;19;10166;-69
2023/07/13 13:21:49;;;;;;;;;;;24.00;66.80;;;;;;7300939;19;9308;-69
2023/07/13 13:24:21;;;;;;;;;;;24.10;66.70;;;;;;7300513;19;9317;-69
2023/07/13 13:26:53;;;;;;;;;;;23.90;66.70;;;;;;7297304;19;9430;-69
2023/07/13 13:29:25;;;;;;;;;;;23.70;68.30;;;;;;7302034;19;9559;-69
2023/07/13 13:31:55;;;;;;;;;;;24.00;67.40;;;;;;7304030;19;10389;-69
2023/07/13 13:34:28;;;;;;;;;;;23.20;68.60;;;;;;7303921;19;9283;-69
2023/07/13 13:36:58;;;;;;;;;;;23.40;68.70;;;;;;7304973;19;9537;-69
2023/07/13 13:39:32;;;;;;;;;;;23.50;68.00;;;;;;7301584;19;9278;-69
2023/07/13 13:42:01;;;;;;;;;;;22.60;67.70;;;;;;7302027;19;9302;-69
2023/07/13 13:44:30;;;;;;;;;;;22.70;68.10;;;;;;7299711;19;9296;-69
2023/07/13 13:47:00;;;;;;;;;;;23.10;69.80;;;;;;7300534;19;9288;-69
2023/07/13 13:49:33;;;;;;;;;;;23.30;68.30;;;;;;7301372;19;9248;-69
2023/07/13 13:52:12;;;;;;;;;;;23.60;69.10;;;;;;7303785;19;9497;-69
2023/07/13 13:54:41;;;;;;;;;;;24.00;67.90;;;;;;7301059;19;9289;-69
2023/07/13 13:57:12;;;;;;;;;;;23.90;68.10;;;;;;7300622;19;10165;-69
2023/07/13 13:59:41;;;;;;;;;;;23.80;67.40;;;;;;7300694;19;9473;-69
2023/07/13 14:02:27;;;;;;;;;;;23.10;67.70;;;;;;7300655;19;10204;-69
2023/07/13 14:05:04;;;;;;;;;;;23.40;68.80;;;;;;7305680;19;9245;-69
2023/07/13 14:07:34;;;;;;;;;;;23.20;66.70;;;;;;7306259;19;9378;-69
2023/07/13 14:10:03;;;;;;;;;;;23.00;67.70;;;;;;7304534;19;10667;-69
2023/07/13 14:12:33;;;;;;;;;;;23.30;68.70;;;;;;7307456;19;10736;-69
2023/07/13 14:15:02;;;;;;;;;;;23.50;68.10;;;;;;7308572;19;9108;-69
2023/07/13 14:17:32;;;;;;;;;;;23.70;68.10;;;;;;7311387;19;9303;-69
2023/07/13 14:20:04;;;;;;;;;;;23.90;67.60;;;;;;7305554;19;11171;-69
2023/07/13 14:22:33;;;;;;;;;;;23.80;66.20;;;;;;7306304;19;9374;-69
2023/07/13 14:25:03;;;;;;;;;;;23.50;66.60;;;;;;7305484;19;9355;-69
2023/07/13 14:27:32;;;;;;;;;;;23.20;68.10;;;;;;7306390;19;11240;-69
2023/07/13 14:30:01;;;;;;;;;;;23.30;67.90;;;;;;7305984;19;9260;-69
2023/07/13 14:32:30;;;;;;;;;;;23.60;68.20;;;;;;7304426;19;11611;-70
2023/07/13 14:35:00;;;;;;;;;;;23.40;66.70;;;;;;7308319;19;9411;-69
2023/07/13 14:37:32;;;;;;;;;;;23.00;65.30;;;;;;7296731;19;9363;-69
2023/07/13 14:40:01;;;;;;;;;;;23.00;67.90;;;;;;7304698;19;9256;-69
2023/07/13 14:42:30;;;;;;;;;;;23.60;68.20;;;;;;7306262;19;10537;-69
2023/07/13 14:44:59;;;;;;;;;;;23.50;68.20;;;;;;7303709;19;9296;-69
2023/07/13 14:47:28;;;;;;;;;;;23.40;66.80;;;;;;7303154;19;9478;-70
2023/07/13 14:49:58;;;;;;;;;;;23.60;67.90;;;;;;7295394;19;9466;-69
2023/07/13 14:52:28;;;;;;;;;;;23.40;66.60;;;;;;7308918;19;10393;-69
2023/07/13 14:54:59;;;;;;;;;;;24.00;67.60;;;;;;7306132;19;9288;-69